createdAt,value
2018-03-06T16:13:03.963Z,21.2
2018-03-06T16:13:56.741Z,21.1
2018-03-06T16:14:46.271Z,20.9
2018-03-06T16:15:36.581Z,21.2
2018-03-06T16:16:26.946Z,22.4
2018-03-06T16:17:16.772Z,23.9
2018-03-06T16:18:07.858Z,24.9
2018-03-06T16:18:57.628Z,25.7
2018-03-06T16:19:47.373Z,26.3
2018-03-06T16:20:37.140Z,26.8
2018-03-06T16:21:27.849Z,27.3
2018-03-06T16:22:16.700Z,27.8
2018-03-06T16:23:07.913Z,28.2
2018-03-06T16:23:57.702Z,28.6
2018-03-06T16:24:46.842Z,28.9
2018-03-06T16:25:37.777Z,29.3
2018-03-06T16:26:27.278Z,28.9
2018-03-06T16:27:17.595Z,28.1
2018-03-06T16:28:05.640Z,27.5
2018-03-06T16:28:58.275Z,27.1
2018-03-06T16:29:48.413Z,26.7
2018-03-06T16:30:38.142Z,26.4
2018-03-06T16:31:28.536Z,26.2
2018-03-06T16:32:18.625Z,26
2018-03-06T16:33:08.371Z,25.8
2018-03-06T16:33:58.619Z,25.6
2018-03-06T16:34:49.086Z,25.4
2018-03-06T16:35:38.549Z,25.2
2018-03-06T16:36:28.831Z,24.9
2018-03-06T16:37:17.999Z,24.8
2018-03-06T16:38:07.799Z,24.6
2018-03-06T16:38:58.148Z,24.4
2018-03-06T16:39:49.301Z,24.3
2018-03-06T16:40:39.384Z,24.1
2018-03-06T16:41:29.450Z,24
2018-03-06T16:42:19.231Z,23.9
2018-03-06T16:43:09.366Z,23.8
2018-03-06T16:43:59.656Z,23.6
2018-03-06T16:44:49.114Z,23.4
2018-03-06T16:45:39.176Z,23.3
2018-03-06T16:46:29.242Z,23.2
2018-03-06T16:47:18.994Z,23.1
2018-03-06T16:48:09.392Z,22.9
2018-03-06T16:48:59.180Z,22.8
2018-03-06T16:49:49.211Z,22.6
2018-03-06T16:50:39.224Z,22.6
2018-03-06T16:51:29.570Z,22.4
2018-03-06T16:52:19.673Z,22.3
2018-03-06T16:53:09.095Z,22.6
2018-03-06T16:54:00.027Z,23.7
2018-03-06T16:54:50.069Z,24.9
2018-03-06T16:55:40.485Z,25.7
2018-03-06T16:56:29.931Z,26.3
2018-03-06T16:57:19.437Z,26.8
2018-03-06T16:58:10.587Z,27.2
2018-03-06T16:58:59.205Z,27.6
2018-03-06T16:59:50.125Z,27.9
2018-03-06T17:00:40.770Z,28.3
2018-03-06T17:01:30.825Z,28.6
2018-03-06T17:02:20.031Z,28.9
2018-03-06T17:03:10.976Z,29.2
2018-03-06T17:04:00.720Z,29.1
2018-03-06T17:04:51.605Z,28.1
2018-03-06T17:05:41.085Z,27.4
2018-03-06T17:06:30.575Z,26.9
2018-03-06T17:07:21.227Z,26.6
2018-03-06T17:08:10.976Z,26.3
2018-03-06T17:09:01.373Z,26.1
2018-03-06T17:09:50.859Z,25.9
2018-03-06T17:10:41.158Z,25.6
2018-03-06T17:11:30.935Z,25.4
2018-03-06T17:12:21.347Z,25.3
2018-03-06T17:13:10.562Z,25.1
2018-03-06T17:14:01.682Z,24.9
2018-03-06T17:14:51.725Z,24.8
2018-03-06T17:15:40.994Z,24.7
2018-03-06T17:16:31.284Z,24.5
2018-03-06T17:17:20.889Z,24.4
2018-03-06T17:18:11.688Z,24.2
2018-03-06T17:19:01.712Z,24.1
2018-03-06T17:19:51.820Z,23.9
2018-03-06T17:20:41.279Z,23.8
2018-03-06T17:21:31.925Z,23.6
2018-03-06T17:22:21.158Z,23.6
2018-03-06T17:23:12.442Z,23.4
2018-03-06T17:24:01.783Z,23.3
2018-03-06T17:24:51.584Z,23.2
2018-03-06T17:25:42.471Z,23.1
2018-03-06T17:26:32.561Z,22.9
2018-03-06T17:27:21.804Z,22.9
2018-03-06T17:28:12.394Z,23.4
2018-03-06T17:29:01.666Z,24.6
2018-03-06T17:29:52.531Z,25.4
2018-03-06T17:30:42.843Z,26
2018-03-06T17:31:32.255Z,26.5
2018-03-06T17:32:20.874Z,27
2018-03-06T17:33:11.131Z,27.4
2018-03-06T17:34:51.533Z,28.2
2018-03-06T17:35:41.411Z,28.5
2018-03-06T17:36:30.861Z,28.8
2018-03-06T17:37:22.476Z,29
2018-03-06T17:38:11.414Z,29.3
2018-03-06T17:39:01.908Z,29.2
2018-03-06T17:39:52.040Z,28.3
2018-03-06T17:40:41.956Z,27.6
2018-03-06T17:41:31.121Z,27.2
2018-03-06T17:42:21.675Z,26.8
2018-03-06T17:43:12.210Z,26.4
2018-03-06T17:44:02.184Z,26.3
2018-03-06T17:44:50.830Z,26
2018-03-06T17:45:41.651Z,25.8
2018-03-06T17:46:31.735Z,25.6
2018-03-06T17:47:22.025Z,25.4
2018-03-06T17:48:12.619Z,25.2
2018-03-06T17:49:02.292Z,25.1
2018-03-06T17:49:52.218Z,24.9
2018-03-06T17:50:41.134Z,24.8
2018-03-06T17:51:32.322Z,24.6
2018-03-06T17:52:22.245Z,24.5
2018-03-06T17:53:12.293Z,24.3
2018-03-06T17:54:03.767Z,24.2
2018-03-06T17:54:54.197Z,24.1
2018-03-06T17:55:43.739Z,23.9
2018-03-06T17:56:34.342Z,23.9
2018-03-06T17:57:24.115Z,24.3
2018-03-06T17:58:13.433Z,25.4
2018-03-06T17:59:03.992Z,26.2
2018-03-06T17:59:53.522Z,26.9
2018-03-06T18:00:43.702Z,27.8
2018-03-06T18:01:33.698Z,27.9
2018-03-06T18:02:23.181Z,27.6
2018-03-06T18:03:11.987Z,27.3
2018-03-06T18:04:03.201Z,27.1
2018-03-06T18:04:53.668Z,26.9
2018-03-06T18:05:43.122Z,26.8
2018-03-06T18:06:34.040Z,26.6
2018-03-06T18:07:25.263Z,26.4
2018-03-06T18:08:14.618Z,26.2
2018-03-06T18:09:04.433Z,26
2018-03-06T18:09:54.756Z,25.9
2018-03-06T18:10:45.139Z,25.8
2018-03-06T18:11:35.386Z,25.6
2018-03-06T18:12:24.827Z,25.5
2018-03-06T18:13:15.464Z,25.3
2018-03-06T18:14:05.888Z,25.2
2018-03-06T18:14:54.762Z,25
2018-03-06T18:15:44.848Z,24.9
2018-03-06T18:16:35.496Z,24.7
2018-03-06T18:17:26.088Z,24.6
2018-03-06T18:18:15.837Z,24.4
2018-03-06T18:19:06.168Z,24.3
2018-03-06T18:19:55.381Z,24.1
2018-03-06T18:20:45.695Z,24
2018-03-06T18:21:35.518Z,23.9
2018-03-06T18:22:26.438Z,23.8
2018-03-06T18:23:16.185Z,23.6
2018-03-06T18:24:06.558Z,23.4
2018-03-06T18:24:56.294Z,23.3
2018-03-06T18:25:46.083Z,23.2
2018-03-06T18:26:36.627Z,23.1
2018-03-06T18:27:26.789Z,23
2018-03-06T18:28:16.530Z,22.9
2018-03-06T18:29:05.988Z,22.8
2018-03-06T18:29:56.128Z,22.7
2018-03-06T18:30:46.425Z,22.6
2018-03-06T18:31:37.110Z,22.4
2018-03-06T18:32:26.696Z,22.4
2018-03-06T18:33:16.325Z,22.3
2018-03-06T18:34:07.305Z,22.8
2018-03-06T18:34:56.837Z,24.1
2018-03-06T18:35:46.500Z,25.1
2018-03-06T18:36:36.555Z,26.1
2018-03-06T18:37:25.860Z,26.9
2018-03-06T18:38:16.852Z,27.8
2018-03-06T18:39:57.017Z,27.5
2018-03-06T18:40:47.032Z,27.3
2018-03-06T18:41:37.807Z,27.1
2018-03-06T18:42:27.797Z,26.9
2018-03-06T18:43:17.242Z,26.7
2018-03-06T18:44:07.305Z,26.6
2018-03-06T18:44:58.086Z,26.4
2018-03-06T18:45:47.121Z,26.3
2018-03-06T18:46:38.111Z,26.1
2018-03-06T18:47:27.073Z,25.9
2018-03-06T18:48:17.449Z,25.8
2018-03-06T18:49:08.209Z,25.6
2018-03-06T18:49:58.036Z,25.4
2018-03-06T18:50:47.785Z,25.3
2018-03-06T18:51:37.138Z,25.1
2018-03-06T18:52:27.406Z,25
2018-03-06T18:53:18.558Z,24.8
2018-03-06T18:54:08.329Z,24.7
2018-03-06T18:54:57.876Z,24.6
2018-03-06T18:55:47.939Z,24.4
2018-03-06T18:56:38.034Z,24.3
2018-03-06T18:57:28.038Z,24.1
2018-03-06T18:58:18.584Z,24
2018-03-06T18:59:08.918Z,23.9
2018-03-06T18:59:58.946Z,23.8
2018-03-06T19:00:48.747Z,23.6
2018-03-06T19:01:37.321Z,23.5
2018-03-06T19:02:27.728Z,23.4
2018-03-06T19:03:18.945Z,23.3
2018-03-06T19:04:09.267Z,23.1
2018-03-06T19:04:59.305Z,23
2018-03-06T19:05:48.858Z,22.9
2018-03-06T19:06:39.382Z,22.8
2018-03-06T19:07:28.721Z,22.7
2018-03-06T19:08:18.988Z,22.6
2018-03-06T19:09:09.371Z,22.4
2018-03-06T19:09:58.785Z,22.4
2018-03-06T19:10:49.147Z,22.9
2018-03-06T19:11:39.470Z,24.1
2018-03-06T19:12:29.262Z,25.2
2018-03-06T19:13:19.910Z,26.1
2018-03-06T19:14:09.655Z,26.9
2018-03-06T19:14:59.465Z,27.6
2018-03-06T19:16:39.857Z,27.4
2018-03-06T19:17:29.872Z,27.2
2018-03-06T19:18:19.969Z,26.9
2018-03-06T19:19:10.605Z,26.8
2018-03-06T19:19:59.844Z,26.5
2018-03-06T19:20:50.166Z,26.4
2018-03-06T19:21:39.659Z,26.2
2018-03-06T19:22:30.250Z,26.1
2018-03-06T19:23:20.017Z,25.9
2018-03-06T19:24:10.366Z,25.8
2018-03-06T19:25:00.375Z,25.6
2018-03-06T19:25:49.944Z,25.4
2018-03-06T19:26:40.900Z,25.3
2018-03-06T19:27:30.590Z,25.1
2018-03-06T19:28:20.660Z,25
2018-03-06T19:29:11.015Z,24.9
2018-03-06T19:30:01.066Z,24.8
2018-03-06T19:30:50.519Z,24.6
2018-03-06T19:31:40.832Z,24.4
2018-03-06T19:32:31.175Z,24.3
2018-03-06T19:33:20.519Z,24.2
2018-03-06T19:34:11.070Z,24.1
2018-03-06T19:35:00.808Z,23.9
2018-03-06T19:35:50.691Z,23.8
2018-03-06T19:36:41.191Z,23.7
2018-03-06T19:37:31.581Z,23.5
2018-03-06T19:38:20.757Z,23.4
2018-03-06T19:39:11.621Z,23.3
2018-03-06T19:40:01.456Z,23.2
2018-03-06T19:40:51.211Z,23
2018-03-06T19:41:40.746Z,22.9
2018-03-06T19:42:31.941Z,22.8
2018-03-06T19:43:21.717Z,22.7
2018-03-06T19:44:11.491Z,22.6
2018-03-06T19:45:01.796Z,22.4
2018-03-06T19:45:51.374Z,22.5
2018-03-06T19:46:41.613Z,23.1
2018-03-06T19:47:30.827Z,24.3
2018-03-06T19:48:22.001Z,25.2
2018-03-06T19:49:11.785Z,26
2018-03-06T19:50:01.578Z,26.8
2018-03-06T19:50:51.463Z,27.4
2018-03-06T19:51:41.312Z,28.1
2018-03-06T19:52:31.029Z,27.7
2018-03-06T19:53:21.711Z,27.4
2018-03-06T19:54:11.794Z,27.1
2018-03-06T19:55:01.478Z,26.9
2018-03-06T19:55:52.185Z,26.8
2018-03-06T19:56:42.425Z,26.6
2018-03-06T19:57:31.315Z,26.4
2018-03-06T19:58:22.210Z,26.3
2018-03-06T19:59:12.433Z,26.1
2018-03-06T20:00:02.019Z,25.9
2018-03-06T20:00:52.467Z,25.8
2018-03-06T20:01:42.162Z,25.6
2018-03-06T20:02:32.486Z,25.4
2018-03-06T20:03:22.895Z,25.3
2018-03-06T20:04:11.772Z,25.1
2018-03-06T20:05:02.666Z,25
2018-03-06T20:05:52.990Z,24.8
2018-03-06T20:06:42.240Z,24.7
2018-03-06T20:07:32.615Z,24.6
2018-03-06T20:08:23.359Z,24.4
2018-03-06T20:09:13.273Z,24.3
2018-03-06T20:10:03.355Z,24.1
2018-03-06T20:10:52.610Z,23.9
2018-03-06T20:11:43.135Z,23.9
2018-03-06T20:12:33.497Z,23.7
2018-03-06T20:13:23.570Z,23.6
2018-03-06T20:14:13.891Z,23.5
2018-03-06T20:15:03.715Z,23.4
2018-03-06T20:15:53.182Z,23.3
2018-03-06T20:16:43.544Z,23.1
2018-03-06T20:17:33.194Z,23
2018-03-06T20:18:23.924Z,22.9
2018-03-06T20:19:14.051Z,22.8
2018-03-06T20:20:04.183Z,22.6
2018-03-06T20:20:53.999Z,22.5
2018-03-06T20:21:44.463Z,22.4
2018-03-06T20:22:34.466Z,22.8
2018-03-06T20:23:24.468Z,23.9
2018-03-06T20:24:14.573Z,24.9
2018-03-06T20:25:04.351Z,25.8
2018-03-06T20:25:54.971Z,26.5
2018-03-06T20:26:44.463Z,27.2
2018-03-06T20:27:34.756Z,27.9
2018-03-06T20:28:25.168Z,27.9
2018-03-06T20:29:14.941Z,27.4
2018-03-06T20:30:05.178Z,27.1
2018-03-06T20:30:54.472Z,26.9
2018-03-06T20:31:44.735Z,26.7
2018-03-06T20:32:35.135Z,26.6
2018-03-06T20:33:24.912Z,26.3
2018-03-06T20:34:15.333Z,26.2
2018-03-06T20:35:04.148Z,26
2018-03-06T20:35:55.408Z,25.9
2018-03-06T20:36:45.121Z,25.7
2018-03-06T20:37:35.552Z,25.6
2018-03-06T20:38:25.140Z,25.4
2018-03-06T20:39:15.139Z,25.3
2018-03-06T20:40:05.475Z,25.1
2018-03-06T20:40:55.058Z,24.9
2018-03-06T20:41:45.495Z,24.8
2018-03-06T20:42:36.058Z,24.7
2018-03-06T20:43:25.991Z,24.5
2018-03-06T20:44:15.413Z,24.3
2018-03-06T20:45:05.480Z,24.2
2018-03-06T20:45:55.715Z,24.1
2018-03-06T20:46:45.220Z,23.9
2018-03-06T20:47:35.860Z,23.8
2018-03-06T20:48:26.605Z,23.7
2018-03-06T20:49:16.016Z,23.5
2018-03-06T20:50:05.830Z,23.4
2018-03-06T20:50:54.964Z,23.3
2018-03-06T20:51:46.243Z,23.2
2018-03-06T20:52:36.636Z,23.1
2018-03-06T20:53:25.631Z,23
2018-03-06T20:54:16.448Z,22.9
2018-03-06T20:55:06.130Z,22.7
2018-03-06T20:55:56.277Z,22.6
2018-03-06T20:56:46.742Z,22.4
2018-03-06T20:57:36.564Z,22.3
2018-03-06T20:58:26.565Z,22.6
2018-03-06T20:59:16.333Z,23.5
2018-03-06T21:00:07.018Z,24.5
2018-03-06T21:00:57.080Z,25.3
2018-03-06T21:01:46.822Z,26.1
2018-03-06T21:02:36.593Z,26.8
2018-03-06T21:03:27.760Z,27.4
2018-03-06T21:04:16.684Z,28.1
2018-03-06T21:05:06.512Z,28.8
2018-03-06T21:05:55.519Z,28.3
2018-03-06T21:06:46.432Z,28
2018-03-06T21:07:36.676Z,27.7
2018-03-06T21:08:27.359Z,27.5
2018-03-06T21:09:15.847Z,27.3
2018-03-06T21:10:06.577Z,27.1
2018-03-06T21:10:56.745Z,26.9
2018-03-06T21:11:45.876Z,26.8
2018-03-06T21:12:36.164Z,26.6
2018-03-06T21:13:26.156Z,26.4
2018-03-06T21:14:16.335Z,26.3
2018-03-06T21:15:05.773Z,26.1
2018-03-06T21:15:56.854Z,25.9
2018-03-06T21:16:46.120Z,25.8
2018-03-06T21:17:36.800Z,25.6
2018-03-06T21:18:27.014Z,25.4
2018-03-06T21:19:17.323Z,25.3
2018-03-06T21:20:07.898Z,25.1
2018-03-06T21:20:57.349Z,25
2018-03-06T21:21:47.694Z,24.8
2018-03-06T21:22:37.450Z,24.7
2018-03-06T21:23:28.338Z,24.6
2018-03-06T21:24:18.155Z,24.4
2018-03-06T21:25:09.295Z,24.3
2018-03-06T21:25:57.629Z,24.1
2018-03-06T21:26:49.101Z,24.1
2018-03-06T21:27:38.051Z,23.9
2018-03-06T21:28:28.683Z,23.8
2018-03-06T21:29:17.490Z,23.6
2018-03-06T21:30:08.488Z,23.8
2018-03-06T21:30:57.872Z,24.6
2018-03-06T21:31:49.322Z,25.4
2018-03-06T21:32:38.697Z,26.2
2018-03-06T21:33:27.524Z,26.9
2018-03-06T21:34:17.664Z,27.5
2018-03-06T21:35:09.113Z,28.2
2018-03-06T21:35:58.570Z,28.8
2018-03-06T21:36:49.915Z,28.4
2018-03-06T21:37:39.072Z,28
2018-03-06T21:38:29.945Z,27.7
2018-03-06T21:39:19.342Z,27.5
2018-03-06T21:40:08.258Z,27.3
2018-03-06T21:40:59.812Z,27.1
2018-03-06T21:41:48.468Z,26.9
2018-03-06T21:42:38.382Z,26.7
2018-03-06T21:43:28.114Z,26.6
2018-03-06T21:44:18.880Z,26.4
2018-03-06T21:45:10.380Z,26.2
2018-03-06T21:45:59.202Z,26
2018-03-06T21:46:49.815Z,25.9
2018-03-06T21:47:40.443Z,25.8
2018-03-06T21:48:30.226Z,25.6
2018-03-06T21:49:20.324Z,25.4
2018-03-06T21:50:10.392Z,25.3
2018-03-06T21:50:59.916Z,25.1
2018-03-06T21:51:50.749Z,25
2018-03-06T21:52:40.258Z,24.8
2018-03-06T21:53:30.863Z,24.7
2018-03-06T21:54:20.895Z,24.6
2018-03-06T21:55:10.731Z,24.4
2018-03-06T21:56:00.476Z,24.3
2018-03-06T21:56:51.425Z,24.1
2018-03-06T21:57:40.857Z,24
2018-03-06T21:58:31.207Z,23.9
2018-03-06T21:59:21.080Z,23.8
2018-03-06T22:00:11.296Z,23.6
2018-03-06T22:01:00.799Z,23.9
2018-03-06T22:01:51.183Z,24.8
2018-03-06T22:02:41.533Z,25.6
2018-03-06T22:03:31.539Z,26.4
2018-03-06T22:04:20.464Z,27.1
2018-03-06T22:05:10.575Z,27.7
2018-03-06T22:06:01.461Z,28.4
2018-03-06T22:06:51.488Z,28.6
2018-03-06T22:07:41.280Z,28.2
2018-03-06T22:08:31.335Z,27.9
2018-03-06T22:09:21.773Z,27.6
2018-03-06T22:10:10.893Z,27.4
2018-03-06T22:11:01.828Z,27.2
2018-03-06T22:11:51.621Z,27
2018-03-06T22:12:41.948Z,26.9
2018-03-06T22:13:30.859Z,26.7
2018-03-06T22:14:21.690Z,26.6
2018-03-06T22:15:11.823Z,26.4
2018-03-06T22:16:01.961Z,26.2
2018-03-06T22:16:51.928Z,26
2018-03-06T22:17:42.217Z,25.9
2018-03-06T22:18:32.537Z,25.8
2018-03-06T22:19:21.575Z,25.6
2018-03-06T22:20:11.392Z,25.4
2018-03-06T22:21:02.047Z,25.3
2018-03-06T22:21:52.834Z,25.2
2018-03-06T22:22:42.274Z,25
2018-03-06T22:23:31.540Z,24.8
2018-03-06T22:24:21.837Z,24.7
2018-03-06T22:25:12.784Z,24.6
2018-03-06T22:26:02.855Z,24.4
2018-03-06T22:26:52.605Z,24.3
2018-03-06T22:27:42.652Z,24.1
2018-03-06T22:28:32.707Z,23.9
2018-03-06T22:29:23.049Z,23.8
2018-03-06T22:30:13.129Z,23.7
2018-03-06T22:31:02.854Z,23.8
2018-03-06T22:31:53.209Z,24.4
2018-03-06T22:32:42.716Z,25.3
2018-03-06T22:33:33.567Z,26.1
2018-03-06T22:34:22.561Z,26.8
2018-03-06T22:35:13.222Z,27.4
2018-03-06T22:36:02.780Z,28.1
2018-03-06T22:36:52.521Z,28.8
2018-03-06T22:37:43.644Z,28.4
2018-03-06T22:38:34.197Z,28
2018-03-06T22:39:23.736Z,27.7
2018-03-06T22:40:14.076Z,27.5
2018-03-06T22:41:03.013Z,27.3
2018-03-06T22:41:53.905Z,27.1
2018-03-06T22:42:44.236Z,26.9
2018-03-06T22:43:33.711Z,26.8
2018-03-06T22:44:23.861Z,26.6
2018-03-06T22:45:13.914Z,26.4
2018-03-06T22:46:04.191Z,26.3
2018-03-06T22:46:54.269Z,26.1
2018-03-06T22:47:44.593Z,25.9
2018-03-06T22:48:33.877Z,25.8
2018-03-06T22:49:24.461Z,25.6
2018-03-06T22:50:14.447Z,25.4
2018-03-06T22:51:04.265Z,25.3
2018-03-06T22:51:54.084Z,25.1
2018-03-06T22:52:44.650Z,25
2018-03-06T22:53:34.130Z,24.8
2018-03-06T22:54:24.552Z,24.7
2018-03-06T22:55:14.855Z,24.6
2018-03-06T22:56:04.903Z,24.4
2018-03-06T22:56:53.813Z,24.3
2018-03-06T22:57:45.282Z,24.1
2018-03-06T22:58:35.013Z,24
2018-03-06T22:59:24.866Z,23.9
2018-03-06T23:00:14.920Z,23.8
2018-03-06T23:01:04.655Z,23.7
2018-03-06T23:01:55.280Z,24
2018-03-06T23:02:45.808Z,24.9
2018-03-06T23:03:35.395Z,25.8
2018-03-06T23:04:25.423Z,26.4
2018-03-06T23:05:15.538Z,27.1
2018-03-06T23:06:55.608Z,28.4
2018-03-06T23:07:45.430Z,28.6
2018-03-06T23:08:35.451Z,28.2
2018-03-06T23:09:25.007Z,27.9
2018-03-06T23:10:15.886Z,27.6
2018-03-06T23:11:05.902Z,27.4
2018-03-06T23:11:55.985Z,27.2
2018-03-06T23:12:45.741Z,27
2018-03-06T23:13:36.200Z,26.8
2018-03-06T23:14:25.754Z,26.7
2018-03-06T23:15:16.456Z,26.5
2018-03-06T23:16:06.254Z,26.3
2018-03-06T23:16:55.761Z,26.1
2018-03-06T23:17:46.077Z,26
2018-03-06T23:18:36.433Z,25.9
2018-03-06T23:19:26.206Z,25.7
2018-03-06T23:20:15.974Z,25.6
2018-03-06T23:21:06.647Z,25.4
2018-03-06T23:21:55.853Z,25.2
2018-03-06T23:22:46.202Z,25.1
2018-03-06T23:23:35.911Z,24.9
2018-03-06T23:24:26.875Z,24.8
2018-03-06T23:25:16.896Z,24.6
2018-03-06T23:26:05.514Z,24.5
2018-03-06T23:26:56.500Z,24.4
2018-03-06T23:27:46.512Z,24.2
2018-03-06T23:28:36.853Z,24.1
2018-03-06T23:29:26.953Z,23.9
2018-03-06T23:30:17.505Z,23.8
2018-03-06T23:31:06.763Z,23.7
2018-03-06T23:31:57.017Z,23.8
2018-03-06T23:32:47.671Z,24.3
2018-03-06T23:33:36.748Z,25.3
2018-03-06T23:34:27.538Z,26
2018-03-06T23:35:17.567Z,26.7
2018-03-06T23:36:07.663Z,27.4
2018-03-06T23:36:57.418Z,28.1
2018-03-06T23:37:48.043Z,28.7
2018-03-06T23:38:36.813Z,28.5
2018-03-06T23:39:26.777Z,28.1
2018-03-06T23:41:07.225Z,27.6
2018-03-06T23:41:57.369Z,27.4
2018-03-06T23:42:48.399Z,27.2
2018-03-06T23:43:37.385Z,27
2018-03-06T23:44:27.660Z,26.9
2018-03-06T23:45:18.024Z,26.6
2018-03-06T23:46:06.967Z,26.5
2018-03-06T23:46:57.330Z,26.3
2018-03-06T23:47:48.164Z,26.2
2018-03-06T23:48:37.930Z,26
2018-03-06T23:49:28.172Z,25.8
2018-03-06T23:50:18.354Z,25.7
2018-03-06T23:51:07.690Z,25.5
2018-03-06T23:51:57.892Z,25.3
2018-03-06T23:52:47.703Z,25.2
2018-03-06T23:53:38.626Z,25.1
2018-03-06T23:54:27.670Z,24.9
2018-03-06T23:55:17.628Z,24.8
2018-03-06T23:56:07.679Z,24.6
2018-03-06T23:56:58.339Z,24.5
2018-03-06T23:57:48.127Z,24.4
2018-03-06T23:58:37.650Z,24.3
2018-03-06T23:59:28.729Z,24.1
